Waregem, Belgium
Current Conditions -  °F | °C
As of 10:30 PM on Thursday 27 Nov 2014 (Local Time) from LFQQ Reporting Station
Haze Haze  
Wind Chill: 50°   Ceiling: 900
Heat Index: 50°   Visibility: 2.5mi
Dew Point: 48°   Wind: 5mph
Humidity: 94%   Direction: 90°E
Pressure: 29.62"   Gusts: NA
Location:  50.89°N, 3.43°E
Report Text: LFQQ 272130Z 09004KT 4000 BR OVC009 10/09 Q1003 TEMPO 2000BR OVC005
Loading
Personal Weather Stations






























Interactive Weather Map New forecast layout! Learn more

10-Day Weather Forecast

Advertisements
Track Severe Weather on mobile